createdAt,value
2023-05-19T00:01:15.922Z,8.97
2023-05-19T00:06:38.285Z,8.97
2023-05-19T00:12:41.570Z,8.98
2023-05-19T00:19:02.844Z,8.94
2023-05-19T00:25:36.203Z,8.86
2023-05-19T00:31:57.648Z,8.77
2023-05-19T00:37:42.467Z,8.74
2023-05-19T00:42:57.670Z,8.65
2023-05-19T00:49:00.642Z,8.64
2023-05-19T00:55:21.912Z,8.67
2023-05-19T01:00:52.312Z,8.65
2023-05-19T01:06:57.362Z,8.62
2023-05-19T01:12:25.570Z,8.56
2023-05-19T01:18:30.055Z,8.52
2023-05-19T01:24:45.712Z,8.52
2023-05-19T01:31:12.305Z,8.52
2023-05-19T01:36:37.960Z,8.52
2023-05-19T01:41:44.658Z,8.51
2023-05-19T01:47:54.333Z,8.48
2023-05-19T01:54:00.168Z,8.44
2023-05-19T01:59:37.784Z,8.46
2023-05-19T02:05:05.446Z,8.47
2023-05-19T02:10:34.313Z,8.45
2023-05-19T02:16:02.602Z,8.43
2023-05-19T02:21:41.452Z,8.43
2023-05-19T02:28:10.169Z,8.44
2023-05-19T02:34:14.336Z,8.45
2023-05-19T02:40:37.510Z,8.41
2023-05-19T02:46:58.853Z,8.39
2023-05-19T02:53:13.294Z,8.36
2023-05-19T02:59:34.700Z,8.38
2023-05-19T03:06:08.376Z,8.37
2023-05-19T03:12:29.605Z,8.32
2023-05-19T03:24:49.274Z,8.36
2023-05-19T03:30:14.894Z,8.39
2023-05-19T03:37:09.613Z,8.43
2023-05-19T03:43:33.628Z,8.49
2023-05-19T03:49:57.067Z,8.58
2023-05-19T03:56:53.522Z,8.70
2023-05-19T04:03:14.996Z,8.75
2023-05-19T04:08:58.130Z,8.86
2023-05-19T04:14:56.055Z,8.97
2023-05-19T04:20:28.242Z,9.08
2023-05-19T04:25:59.792Z,9.13
2023-05-19T04:31:27.062Z,9.19
2023-05-19T04:37:31.352Z,9.28
2023-05-19T04:44:15.233Z,9.38
2023-05-19T04:50:56.984Z,9.52
2023-05-19T04:57:18.902Z,9.59
2023-05-19T05:02:47.451Z,9.66
2023-05-19T05:08:04.111Z,9.72
2023-05-19T05:13:12.629Z,9.83
2023-05-19T05:18:17.802Z,9.99
2023-05-19T05:24:19.667Z,10.14
2023-05-19T05:30:45.882Z,10.38
2023-05-19T06:07:07.269Z,12.08
2023-05-19T06:12:22.366Z,11.82
2023-05-19T06:17:26.205Z,11.50
2023-05-19T06:22:28.320Z,11.35
2023-05-19T06:27:33.286Z,11.37
2023-05-19T06:33:20.651Z,11.30
2023-05-19T06:39:06.664Z,11.08
2023-05-19T06:45:31.093Z,10.96
2023-05-19T06:51:10.332Z,10.96
2023-05-19T06:56:23.084Z,11.01
2023-05-19T07:02:04.723Z,11.16
2023-05-19T07:08:10.016Z,11.30
2023-05-19T07:14:40.974Z,11.40
2023-05-19T07:21:09.185Z,11.49
2023-05-19T07:27:52.809Z,11.58
2023-05-19T07:34:13.861Z,11.73
2023-05-19T07:40:19.980Z,11.83
2023-05-19T07:45:49.864Z,12.02
2023-05-19T07:50:53.415Z,12.08
2023-05-19T07:55:58.795Z,12.05
2023-05-19T08:02:00.647Z,12.14
2023-05-19T08:08:26.220Z,12.33
2023-05-19T08:14:47.884Z,12.47
2023-05-19T08:21:09.212Z,12.66
2023-05-19T08:27:40.380Z,12.83
2023-05-19T08:34:02.105Z,13.05
2023-05-19T08:40:07.796Z,13.26
2023-05-19T08:46:23.950Z,13.45
2023-05-19T08:52:09.479Z,13.65
2023-05-19T08:58:30.596Z,13.85
2023-05-19T09:04:58.931Z,14.25
2023-05-19T09:11:22.950Z,14.42
2023-05-19T09:17:47.599Z,14.07
2023-05-19T09:24:13.429Z,14.18
2023-05-19T09:30:31.477Z,14.32
2023-05-19T09:35:39.364Z,14.37
2023-05-19T09:41:22.501Z,14.29
2023-05-19T09:46:40.454Z,14.03
2023-05-19T09:52:50.439Z,13.93
2023-05-19T09:59:14.778Z,13.82
2023-05-19T10:05:36.294Z,13.57
2023-05-19T10:11:57.569Z,13.32
2023-05-19T10:18:40.198Z,13.18
2023-05-19T10:24:39.710Z,13.53
2023-05-19T10:29:47.961Z,13.85
2023-05-19T10:35:28.450Z,14.27
2023-05-19T10:41:59.299Z,14.78
2023-05-19T10:47:00.981Z,15.22
2023-05-19T10:52:20.853Z,15.62
2023-05-19T10:57:33.467Z,15.96
2023-05-19T11:02:42.293Z,16.24
2023-05-19T11:07:59.479Z,16.23
2023-05-19T11:13:22.693Z,16.37
2023-05-19T11:18:30.800Z,16.65
2023-05-19T11:23:45.400Z,16.90
2023-05-19T11:28:47.626Z,17.01
2023-05-19T11:34:48.830Z,16.91
2023-05-19T11:41:20.912Z,17.04
2023-05-19T11:47:56.383Z,16.94
2023-05-19T11:53:23.483Z,16.74
2023-05-19T11:59:44.913Z,16.58
2023-05-19T12:05:09.701Z,16.55
2023-05-19T12:10:19.279Z,16.54
2023-05-19T12:15:22.241Z,16.32
2023-05-19T12:21:23.688Z,16.05
2023-05-19T12:26:38.769Z,16.19
2023-05-19T12:31:40.988Z,16.28
2023-05-19T12:37:42.508Z,16.27
2023-05-19T12:44:03.613Z,16.32
2023-05-19T12:50:37.446Z,16.42
2023-05-19T12:57:17.347Z,16.47
2023-05-19T13:03:09.220Z,16.60
2023-05-19T13:09:31.069Z,16.85
2023-05-19T13:15:26.489Z,17.09
2023-05-19T13:21:00.544Z,17.07
2023-05-19T13:26:12.618Z,17.08
2023-05-19T13:31:14.552Z,17.04
2023-05-19T13:36:16.326Z,17.03
2023-05-19T13:41:25.469Z,17.06
2023-05-19T13:47:26.906Z,17.05
2023-05-19T13:53:48.027Z,17.03
2023-05-19T13:59:16.576Z,17.08
2023-05-19T14:05:17.660Z,17.04
2023-05-19T14:11:41.495Z,16.96
2023-05-19T14:17:06.199Z,17.01
2023-05-19T14:22:08.239Z,17.13
2023-05-19T14:27:09.909Z,17.19
2023-05-19T14:32:30.438Z,17.26
2023-05-19T14:37:33.262Z,17.22
2023-05-19T14:42:37.924Z,17.20
2023-05-19T14:48:57.768Z,17.24
2023-05-19T14:55:18.754Z,17.15
2023-05-19T15:01:40.091Z,17.15
2023-05-19T15:08:02.044Z,17.11
2023-05-19T15:13:25.822Z,17.02
2023-05-19T15:18:29.756Z,16.98
2023-05-19T15:23:34.414Z,16.87
2023-05-19T15:28:38.913Z,16.79
2023-05-19T15:33:41.440Z,16.58
2023-05-19T15:38:45.787Z,16.36
2023-05-19T15:43:52.923Z,16.26
2023-05-19T15:48:55.196Z,16.13
2023-05-19T15:54:00.571Z,15.98
2023-05-19T15:59:02.279Z,15.91
2023-05-19T16:04:07.216Z,15.87
2023-05-19T16:09:16.028Z,15.84
2023-05-19T16:14:45.420Z,15.76
2023-05-19T16:19:47.123Z,15.65
2023-05-19T16:24:48.925Z,15.48
2023-05-19T16:29:50.335Z,15.34
2023-05-19T16:34:52.727Z,15.09
2023-05-19T16:41:13.973Z,14.91
2023-05-19T16:47:35.011Z,14.77
2023-05-19T16:53:56.769Z,14.57
2023-05-19T16:59:38.285Z,14.37
2023-05-19T17:06:03.370Z,14.18
2023-05-19T17:12:25.215Z,14.01
2023-05-19T17:18:44.744Z,14.01
2023-05-19T17:25:07.743Z,13.95
2023-05-19T17:31:52.087Z,13.87
2023-05-19T17:37:38.461Z,13.69
2023-05-19T17:43:17.585Z,13.64
2023-05-19T17:48:40.530Z,13.60
2023-05-19T17:53:46.528Z,13.49
2023-05-19T19:10:11.245Z,14.25
2023-05-19T19:16:32.744Z,13.68
2023-05-19T19:22:53.830Z,13.36
2023-05-19T19:29:14.877Z,13.02
2023-05-19T19:35:35.888Z,12.80
2023-05-19T19:41:57.162Z,12.58
2023-05-19T19:48:18.165Z,12.23
2023-05-19T19:54:39.207Z,11.97
2023-05-19T19:59:40.987Z,11.80
2023-05-19T20:04:42.338Z,11.79
2023-05-19T20:10:43.566Z,11.73
2023-05-19T20:17:04.604Z,11.64
2023-05-19T20:22:25.845Z,11.54
2023-05-19T20:28:27.259Z,11.56
2023-05-19T20:34:48.310Z,11.59
2023-05-19T20:40:09.784Z,11.50
2023-05-19T20:45:11.475Z,11.51
2023-05-19T20:50:13.097Z,11.61
2023-05-19T20:55:14.457Z,11.66
2023-05-19T21:00:16.149Z,11.64
2023-05-19T21:06:17.414Z,11.51
2023-05-19T21:12:58.493Z,11.39
2023-05-19T21:19:19.676Z,11.42
2023-05-19T21:25:40.863Z,11.45
2023-05-19T21:32:01.865Z,11.49
2023-05-19T21:37:23.441Z,11.56
2023-05-19T21:42:44.390Z,11.62
2023-05-19T21:47:49.567Z,11.63
2023-05-19T21:52:54.873Z,11.60
2023-05-19T21:57:59.587Z,11.58
2023-05-19T22:03:02.441Z,11.54
2023-05-19T22:08:04.605Z,11.44
2023-05-19T22:13:05.968Z,11.36
2023-05-19T22:18:07.610Z,11.29
2023-05-19T22:23:09.132Z,11.21
2023-05-19T22:28:10.526Z,11.21
2023-05-19T22:33:12.580Z,11.27
2023-05-19T22:38:14.236Z,11.24
2023-05-19T22:43:15.796Z,11.19
2023-05-19T22:48:17.186Z,11.23
2023-05-19T22:53:18.674Z,11.22
2023-05-19T22:58:20.623Z,11.20
2023-05-19T23:03:21.865Z,11.19
2023-05-19T23:09:23.664Z,11.22
2023-05-19T23:15:57.094Z,11.26
2023-05-19T23:22:18.216Z,11.26
2023-05-19T23:28:39.683Z,11.25
2023-05-19T23:34:01.207Z,11.24
2023-05-19T23:39:05.552Z,11.22
2023-05-19T23:44:07.931Z,11.23
2023-05-19T23:49:10.846Z,11.19
2023-05-19T23:54:12.096Z,11.17
2023-05-19T23:59:13.992Z,11.14
